sensor_id;sensor_type;location;lat;lon;timestamp;P1;durP1;ratioP1;P2;durP2;ratioP2
8046;SDS011;67150;42.516;23.358;2023-06-14T00:01:20;3.70;;;3.20;;
8046;SDS011;67150;42.516;23.358;2023-06-14T00:03:48;3.50;;;3.20;;
8046;SDS011;67150;42.516;23.358;2023-06-14T00:06:15;2.77;;;2.67;;
8046;SDS011;67150;42.516;23.358;2023-06-14T00:08:43;3.23;;;3.03;;
8046;SDS011;67150;42.516;23.358;2023-06-14T00:11:10;3.43;;;3.13;;
8046;SDS011;67150;42.516;23.358;2023-06-14T00:13:38;4.03;;;3.27;;
8046;SDS011;67150;42.516;23.358;2023-06-14T00:16:07;3.33;;;3.03;;
8046;SDS011;67150;42.516;23.358;2023-06-14T00:18:35;3.33;;;3.13;;
8046;SDS011;67150;42.516;23.358;2023-06-14T00:21:03;3.10;;;2.90;;
8046;SDS011;67150;42.516;23.358;2023-06-14T00:23:31;3.33;;;3.00;;
8046;SDS011;67150;42.516;23.358;2023-06-14T00:25:58;3.00;;;2.80;;
8046;SDS011;67150;42.516;23.358;2023-06-14T00:28:25;3.33;;;2.90;;
8046;SDS011;67150;42.516;23.358;2023-06-14T00:30:53;3.50;;;3.20;;
8046;SDS011;67150;42.516;23.358;2023-06-14T00:33:22;3.37;;;3.17;;
8046;SDS011;67150;42.516;23.358;2023-06-14T00:35:50;3.73;;;3.20;;
8046;SDS011;67150;42.516;23.358;2023-06-14T00:38:19;3.50;;;3.20;;
8046;SDS011;67150;42.516;23.358;2023-06-14T00:40:46;3.17;;;2.97;;
8046;SDS011;67150;42.516;23.358;2023-06-14T00:43:13;4.00;;;3.30;;
8046;SDS011;67150;42.516;23.358;2023-06-14T00:45:41;3.60;;;3.40;;
8046;SDS011;67150;42.516;23.358;2023-06-14T00:48:08;3.70;;;3.40;;
8046;SDS011;67150;42.516;23.358;2023-06-14T00:50:38;3.20;;;3.00;;
8046;SDS011;67150;42.516;23.358;2023-06-14T00:53:07;3.90;;;3.50;;
8046;SDS011;67150;42.516;23.358;2023-06-14T00:55:34;3.63;;;3.43;;
8046;SDS011;67150;42.516;23.358;2023-06-14T00:58:01;3.70;;;3.40;;
8046;SDS011;67150;42.516;23.358;2023-06-14T01:00:29;3.37;;;3.17;;
8046;SDS011;67150;42.516;23.358;2023-06-14T01:02:56;3.83;;;3.53;;
8046;SDS011;67150;42.516;23.358;2023-06-14T01:05:24;4.13;;;3.83;;
8046;SDS011;67150;42.516;23.358;2023-06-14T01:07:58;4.63;;;4.23;;
8046;SDS011;67150;42.516;23.358;2023-06-14T01:10:42;4.57;;;4.17;;
8046;SDS011;67150;42.516;23.358;2023-06-14T01:13:19;4.93;;;4.30;;
8046;SDS011;67150;42.516;23.358;2023-06-14T01:15:48;4.63;;;4.27;;
8046;SDS011;67150;42.516;23.358;2023-06-14T01:18:17;5.10;;;4.70;;
8046;SDS011;67150;42.516;23.358;2023-06-14T01:20:45;4.63;;;4.30;;
8046;SDS011;67150;42.516;23.358;2023-06-14T01:23:16;5.27;;;4.80;;
8046;SDS011;67150;42.516;23.358;2023-06-14T01:25:43;6.23;;;5.47;;
8046;SDS011;67150;42.516;23.358;2023-06-14T01:28:15;5.30;;;4.90;;
8046;SDS011;67150;42.516;23.358;2023-06-14T01:30:44;5.30;;;4.90;;
8046;SDS011;67150;42.516;23.358;2023-06-14T01:33:13;5.67;;;5.17;;
8046;SDS011;67150;42.516;23.358;2023-06-14T01:35:43;5.40;;;4.90;;
8046;SDS011;67150;42.516;23.358;2023-06-14T01:38:11;5.80;;;5.20;;
8046;SDS011;67150;42.516;23.358;2023-06-14T01:40:41;5.77;;;5.27;;
8046;SDS011;67150;42.516;23.358;2023-06-14T01:43:09;6.70;;;5.27;;
8046;SDS011;67150;42.516;23.358;2023-06-14T01:45:38;5.47;;;5.03;;
8046;SDS011;67150;42.516;23.358;2023-06-14T01:48:07;5.90;;;5.30;;
8046;SDS011;67150;42.516;23.358;2023-06-14T01:50:34;5.97;;;5.40;;
8046;SDS011;67150;42.516;23.358;2023-06-14T01:53:02;5.90;;;5.40;;
8046;SDS011;67150;42.516;23.358;2023-06-14T01:55:30;6.47;;;5.87;;
8046;SDS011;67150;42.516;23.358;2023-06-14T01:58:04;5.73;;;5.23;;
8046;SDS011;67150;42.516;23.358;2023-06-14T02:00:31;6.83;;;5.77;;
8046;SDS011;67150;42.516;23.358;2023-06-14T02:02:58;6.17;;;5.57;;
8046;SDS011;67150;42.516;23.358;2023-06-14T02:05:26;6.23;;;5.63;;
8046;SDS011;67150;42.516;23.358;2023-06-14T02:07:53;7.10;;;6.27;;
8046;SDS011;67150;42.516;23.358;2023-06-14T02:10:21;6.83;;;6.13;;
8046;SDS011;67150;42.516;23.358;2023-06-14T02:12:48;6.40;;;5.90;;
8046;SDS011;67150;42.516;23.358;2023-06-14T02:15:17;6.27;;;5.77;;
8046;SDS011;67150;42.516;23.358;2023-06-14T02:17:45;5.87;;;5.33;;
8046;SDS011;67150;42.516;23.358;2023-06-14T02:20:14;6.30;;;5.67;;
8046;SDS011;67150;42.516;23.358;2023-06-14T02:22:42;6.60;;;6.00;;
8046;SDS011;67150;42.516;23.358;2023-06-14T02:25:09;6.30;;;5.70;;
8046;SDS011;67150;42.516;23.358;2023-06-14T02:27:37;5.83;;;5.33;;
8046;SDS011;67150;42.516;23.358;2023-06-14T02:30:05;6.87;;;5.70;;
8046;SDS011;67150;42.516;23.358;2023-06-14T02:32:34;6.33;;;5.73;;
8046;SDS011;67150;42.516;23.358;2023-06-14T02:35:02;5.63;;;5.13;;
8046;SDS011;67150;42.516;23.358;2023-06-14T02:37:29;5.73;;;5.23;;
8046;SDS011;67150;42.516;23.358;2023-06-14T02:39:57;5.53;;;5.13;;
8046;SDS011;67150;42.516;23.358;2023-06-14T02:42:25;5.70;;;5.20;;
8046;SDS011;67150;42.516;23.358;2023-06-14T02:44:52;5.40;;;4.80;;
8046;SDS011;67150;42.516;23.358;2023-06-14T02:47:20;5.50;;;4.80;;
8046;SDS011;67150;42.516;23.358;2023-06-14T02:49:49;5.40;;;4.90;;
8046;SDS011;67150;42.516;23.358;2023-06-14T02:52:19;5.57;;;5.13;;
8046;SDS011;67150;42.516;23.358;2023-06-14T02:54:47;4.87;;;4.47;;
8046;SDS011;67150;42.516;23.358;2023-06-14T02:57:15;5.47;;;4.97;;
8046;SDS011;67150;42.516;23.358;2023-06-14T02:59:43;4.80;;;4.40;;
8046;SDS011;67150;42.516;23.358;2023-06-14T03:02:10;4.80;;;4.40;;
8046;SDS011;67150;42.516;23.358;2023-06-14T03:04:37;4.87;;;4.47;;
8046;SDS011;67150;42.516;23.358;2023-06-14T03:07:07;4.93;;;4.53;;
8046;SDS011;67150;42.516;23.358;2023-06-14T03:09:35;5.37;;;4.97;;
8046;SDS011;67150;42.516;23.358;2023-06-14T03:12:04;4.67;;;4.30;;
8046;SDS011;67150;42.516;23.358;2023-06-14T03:14:32;4.30;;;3.90;;
8046;SDS011;67150;42.516;23.358;2023-06-14T03:17:00;5.10;;;4.60;;
8046;SDS011;67150;42.516;23.358;2023-06-14T03:19:27;5.37;;;4.57;;
8046;SDS011;67150;42.516;23.358;2023-06-14T03:21:54;4.27;;;3.87;;
8046;SDS011;67150;42.516;23.358;2023-06-14T03:24:25;4.77;;;4.37;;
8046;SDS011;67150;42.516;23.358;2023-06-14T03:26:54;4.43;;;4.03;;
8046;SDS011;67150;42.516;23.358;2023-06-14T03:29:22;4.47;;;4.17;;
8046;SDS011;67150;42.516;23.358;2023-06-14T03:31:56;4.77;;;4.40;;
8046;SDS011;67150;42.516;23.358;2023-06-14T03:34:24;4.37;;;4.07;;
8046;SDS011;67150;42.516;23.358;2023-06-14T03:36:52;3.93;;;3.63;;
8046;SDS011;67150;42.516;23.358;2023-06-14T03:39:19;4.50;;;4.20;;
8046;SDS011;67150;42.516;23.358;2023-06-14T03:41:48;4.77;;;3.90;;
8046;SDS011;67150;42.516;23.358;2023-06-14T03:44:16;4.33;;;3.93;;
8046;SDS011;67150;42.516;23.358;2023-06-14T03:46:47;4.87;;;4.23;;
8046;SDS011;67150;42.516;23.358;2023-06-14T03:49:14;5.20;;;4.23;;
8046;SDS011;67150;42.516;23.358;2023-06-14T03:51:42;4.23;;;3.93;;
8046;SDS011;67150;42.516;23.358;2023-06-14T03:54:10;4.50;;;4.10;;
8046;SDS011;67150;42.516;23.358;2023-06-14T03:56:38;4.30;;;4.00;;
8046;SDS011;67150;42.516;23.358;2023-06-14T03:59:07;4.60;;;4.20;;
8046;SDS011;67150;42.516;23.358;2023-06-14T04:01:34;6.53;;;4.10;;
8046;SDS011;67150;42.516;23.358;2023-06-14T04:04:01;4.20;;;3.90;;
8046;SDS011;67150;42.516;23.358;2023-06-14T04:06:29;4.70;;;4.30;;
8046;SDS011;67150;42.516;23.358;2023-06-14T04:08:58;4.50;;;4.20;;
8046;SDS011;67150;42.516;23.358;2023-06-14T04:11:30;4.73;;;4.40;;
8046;SDS011;67150;42.516;23.358;2023-06-14T04:13:58;4.73;;;4.33;;
8046;SDS011;67150;42.516;23.358;2023-06-14T04:16:27;4.53;;;4.23;;
8046;SDS011;67150;42.516;23.358;2023-06-14T04:18:54;4.53;;;4.23;;
8046;SDS011;67150;42.516;23.358;2023-06-14T04:21:23;4.53;;;4.23;;
8046;SDS011;67150;42.516;23.358;2023-06-14T04:23:53;5.03;;;4.53;;
8046;SDS011;67150;42.516;23.358;2023-06-14T04:26:21;4.70;;;4.17;;
8046;SDS011;67150;42.516;23.358;2023-06-14T04:28:49;4.50;;;4.20;;
8046;SDS011;67150;42.516;23.358;2023-06-14T04:31:16;5.10;;;4.60;;
8046;SDS011;67150;42.516;23.358;2023-06-14T04:33:45;4.90;;;4.50;;
8046;SDS011;67150;42.516;23.358;2023-06-14T04:36:13;4.93;;;4.53;;
8046;SDS011;67150;42.516;23.358;2023-06-14T04:38:43;5.47;;;5.03;;
8046;SDS011;67150;42.516;23.358;2023-06-14T04:41:11;4.90;;;4.50;;
8046;SDS011;67150;42.516;23.358;2023-06-14T04:43:39;5.47;;;5.07;;
8046;SDS011;67150;42.516;23.358;2023-06-14T04:46:08;4.73;;;4.43;;
8046;SDS011;67150;42.516;23.358;2023-06-14T04:48:37;5.33;;;4.83;;
8046;SDS011;67150;42.516;23.358;2023-06-14T04:51:08;5.13;;;4.73;;
8046;SDS011;67150;42.516;23.358;2023-06-14T04:53:35;5.20;;;4.80;;
8046;SDS011;67150;42.516;23.358;2023-06-14T04:56:03;5.23;;;4.83;;
8046;SDS011;67150;42.516;23.358;2023-06-14T04:58:30;5.00;;;4.60;;
8046;SDS011;67150;42.516;23.358;2023-06-14T05:00:58;5.17;;;4.77;;
8046;SDS011;67150;42.516;23.358;2023-06-14T05:03:26;5.03;;;4.63;;
8046;SDS011;67150;42.516;23.358;2023-06-14T05:05:56;5.40;;;5.00;;
8046;SDS011;67150;42.516;23.358;2023-06-14T05:08:24;5.47;;;4.97;;
8046;SDS011;67150;42.516;23.358;2023-06-14T05:10:52;5.63;;;5.03;;
8046;SDS011;67150;42.516;23.358;2023-06-14T05:13:19;5.37;;;4.97;;
8046;SDS011;67150;42.516;23.358;2023-06-14T05:15:48;5.20;;;4.80;;
8046;SDS011;67150;42.516;23.358;2023-06-14T05:18:15;5.57;;;4.53;;
8046;SDS011;67150;42.516;23.358;2023-06-14T05:20:43;5.57;;;5.17;;
8046;SDS011;67150;42.516;23.358;2023-06-14T05:23:11;5.20;;;4.80;;
8046;SDS011;67150;42.516;23.358;2023-06-14T05:25:42;5.37;;;4.97;;
8046;SDS011;67150;42.516;23.358;2023-06-14T05:28:10;5.30;;;4.90;;
8046;SDS011;67150;42.516;23.358;2023-06-14T05:30:38;5.40;;;4.90;;
8046;SDS011;67150;42.516;23.358;2023-06-14T05:33:05;5.67;;;5.17;;
8046;SDS011;67150;42.516;23.358;2023-06-14T05:35:33;5.50;;;5.10;;
8046;SDS011;67150;42.516;23.358;2023-06-14T05:38:00;5.07;;;4.67;;
8046;SDS011;67150;42.516;23.358;2023-06-14T05:40:31;5.53;;;5.13;;
8046;SDS011;67150;42.516;23.358;2023-06-14T05:43:00;4.97;;;4.57;;
8046;SDS011;67150;42.516;23.358;2023-06-14T05:45:27;5.57;;;5.17;;
8046;SDS011;67150;42.516;23.358;2023-06-14T05:47:54;5.60;;;5.20;;
8046;SDS011;67150;42.516;23.358;2023-06-14T05:50:22;5.60;;;5.00;;
8046;SDS011;67150;42.516;23.358;2023-06-14T05:52:53;5.80;;;5.30;;
8046;SDS011;67150;42.516;23.358;2023-06-14T05:55:20;5.60;;;5.20;;
8046;SDS011;67150;42.516;23.358;2023-06-14T05:57:47;5.53;;;5.13;;
8046;SDS011;67150;42.516;23.358;2023-06-14T06:00:17;5.83;;;5.40;;
8046;SDS011;67150;42.516;23.358;2023-06-14T06:02:45;5.33;;;4.93;;
8046;SDS011;67150;42.516;23.358;2023-06-14T06:05:12;5.07;;;4.67;;
8046;SDS011;67150;42.516;23.358;2023-06-14T06:07:40;6.00;;;5.50;;
8046;SDS011;67150;42.516;23.358;2023-06-14T06:10:09;5.43;;;5.03;;
8046;SDS011;67150;42.516;23.358;2023-06-14T06:12:37;5.57;;;5.17;;
8046;SDS011;67150;42.516;23.358;2023-06-14T06:15:05;5.70;;;5.30;;
8046;SDS011;67150;42.516;23.358;2023-06-14T06:17:34;5.80;;;5.40;;
8046;SDS011;67150;42.516;23.358;2023-06-14T06:20:01;5.80;;;5.40;;
8046;SDS011;67150;42.516;23.358;2023-06-14T06:22:31;6.07;;;5.57;;
8046;SDS011;67150;42.516;23.358;2023-06-14T06:24:58;5.87;;;5.47;;
8046;SDS011;67150;42.516;23.358;2023-06-14T06:27:25;6.07;;;5.57;;
8046;SDS011;67150;42.516;23.358;2023-06-14T06:29:52;6.20;;;5.63;;
8046;SDS011;67150;42.516;23.358;2023-06-14T06:32:19;6.20;;;5.70;;
8046;SDS011;67150;42.516;23.358;2023-06-14T06:34:49;6.57;;;5.50;;
8046;SDS011;67150;42.516;23.358;2023-06-14T06:37:17;6.10;;;5.60;;
8046;SDS011;67150;42.516;23.358;2023-06-14T06:39:44;6.20;;;5.77;;
8046;SDS011;67150;42.516;23.358;2023-06-14T06:42:12;6.57;;;5.97;;
8046;SDS011;67150;42.516;23.358;2023-06-14T06:44:39;6.77;;;6.27;;
8046;SDS011;67150;42.516;23.358;2023-06-14T06:47:06;6.53;;;5.93;;
8046;SDS011;67150;42.516;23.358;2023-06-14T06:49:35;6.20;;;5.70;;
8046;SDS011;67150;42.516;23.358;2023-06-14T06:52:04;7.97;;;5.63;;
8046;SDS011;67150;42.516;23.358;2023-06-14T06:54:32;6.93;;;6.33;;
8046;SDS011;67150;42.516;23.358;2023-06-14T06:57:00;6.27;;;5.77;;
8046;SDS011;67150;42.516;23.358;2023-06-14T06:59:28;6.70;;;6.10;;
8046;SDS011;67150;42.516;23.358;2023-06-14T07:01:55;5.90;;;5.50;;
8046;SDS011;67150;42.516;23.358;2023-06-14T07:04:23;6.17;;;5.67;;
8046;SDS011;67150;42.516;23.358;2023-06-14T07:06:50;6.63;;;6.07;;
8046;SDS011;67150;42.516;23.358;2023-06-14T07:09:19;6.37;;;5.87;;
8046;SDS011;67150;42.516;23.358;2023-06-14T07:11:47;6.83;;;6.17;;
8046;SDS011;67150;42.516;23.358;2023-06-14T07:14:14;6.63;;;6.13;;
8046;SDS011;67150;42.516;23.358;2023-06-14T07:16:42;6.77;;;6.17;;
8046;SDS011;67150;42.516;23.358;2023-06-14T07:19:09;6.60;;;6.10;;
8046;SDS011;67150;42.516;23.358;2023-06-14T07:21:37;6.83;;;6.33;;
8046;SDS011;67150;42.516;23.358;2023-06-14T07:24:05;6.60;;;6.00;;
8046;SDS011;67150;42.516;23.358;2023-06-14T07:26:34;6.30;;;5.80;;
8046;SDS011;67150;42.516;23.358;2023-06-14T07:29:02;6.80;;;6.20;;
8046;SDS011;67150;42.516;23.358;2023-06-14T07:31:29;7.10;;;6.50;;
8046;SDS011;67150;42.516;23.358;2023-06-14T07:33:56;7.20;;;6.60;;
8046;SDS011;67150;42.516;23.358;2023-06-14T07:36:24;6.50;;;6.00;;
8046;SDS011;67150;42.516;23.358;2023-06-14T07:38:51;6.40;;;5.90;;
8046;SDS011;67150;42.516;23.358;2023-06-14T07:41:19;7.07;;;6.40;;
8046;SDS011;67150;42.516;23.358;2023-06-14T07:43:48;6.97;;;6.37;;
8046;SDS011;67150;42.516;23.358;2023-06-14T07:46:16;7.20;;;6.60;;
8046;SDS011;67150;42.516;23.358;2023-06-14T07:48:43;7.03;;;6.43;;
8046;SDS011;67150;42.516;23.358;2023-06-14T07:51:10;6.93;;;6.43;;
8046;SDS011;67150;42.516;23.358;2023-06-14T07:53:38;6.47;;;5.97;;
8046;SDS011;67150;42.516;23.358;2023-06-14T07:56:07;7.17;;;6.57;;
8046;SDS011;67150;42.516;23.358;2023-06-14T07:58:35;6.93;;;6.33;;
8046;SDS011;67150;42.516;23.358;2023-06-14T08:01:03;6.60;;;6.00;;
8046;SDS011;67150;42.516;23.358;2023-06-14T08:03:33;6.67;;;6.17;;
8046;SDS011;67150;42.516;23.358;2023-06-14T08:06:01;7.33;;;6.73;;
8046;SDS011;67150;42.516;23.358;2023-06-14T08:08:28;7.17;;;6.57;;
8046;SDS011;67150;42.516;23.358;2023-06-14T08:10:55;7.40;;;6.80;;
8046;SDS011;67150;42.516;23.358;2023-06-14T08:13:23;6.90;;;6.40;;
8046;SDS011;67150;42.516;23.358;2023-06-14T08:15:50;8.13;;;7.17;;
8046;SDS011;67150;42.516;23.358;2023-06-14T08:18:19;7.53;;;6.53;;
8046;SDS011;67150;42.516;23.358;2023-06-14T08:20:46;7.00;;;6.47;;
8046;SDS011;67150;42.516;23.358;2023-06-14T08:23:14;7.80;;;7.20;;
8046;SDS011;67150;42.516;23.358;2023-06-14T08:25:44;7.80;;;7.20;;
8046;SDS011;67150;42.516;23.358;2023-06-14T08:28:11;7.80;;;7.10;;
8046;SDS011;67150;42.516;23.358;2023-06-14T08:30:39;6.83;;;6.33;;
8046;SDS011;67150;42.516;23.358;2023-06-14T08:33:06;7.77;;;7.10;;
8046;SDS011;67150;42.516;23.358;2023-06-14T08:35:35;6.90;;;6.40;;
8046;SDS011;67150;42.516;23.358;2023-06-14T08:38:04;7.30;;;6.70;;
8046;SDS011;67150;42.516;23.358;2023-06-14T08:40:32;7.37;;;6.77;;
8046;SDS011;67150;42.516;23.358;2023-06-14T08:43:03;6.67;;;6.17;;
8046;SDS011;67150;42.516;23.358;2023-06-14T08:45:31;7.47;;;6.83;;
8046;SDS011;67150;42.516;23.358;2023-06-14T08:47:58;7.83;;;7.13;;
8046;SDS011;67150;42.516;23.358;2023-06-14T08:50:26;7.20;;;6.60;;
8046;SDS011;67150;42.516;23.358;2023-06-14T08:52:56;6.50;;;5.70;;
8046;SDS011;67150;42.516;23.358;2023-06-14T08:55:25;7.43;;;6.83;;
8046;SDS011;67150;42.516;23.358;2023-06-14T08:57:54;7.17;;;6.57;;
8046;SDS011;67150;42.516;23.358;2023-06-14T09:00:24;7.70;;;7.00;;
8046;SDS011;67150;42.516;23.358;2023-06-14T09:02:52;7.13;;;6.53;;
8046;SDS011;67150;42.516;23.358;2023-06-14T09:05:23;7.20;;;6.60;;
8046;SDS011;67150;42.516;23.358;2023-06-14T09:07:51;7.77;;;6.50;;
8046;SDS011;67150;42.516;23.358;2023-06-14T09:10:21;7.60;;;7.00;;
8046;SDS011;67150;42.516;23.358;2023-06-14T09:12:51;7.53;;;6.87;;
8046;SDS011;67150;42.516;23.358;2023-06-14T09:15:18;7.37;;;6.77;;
8046;SDS011;67150;42.516;23.358;2023-06-14T09:17:46;7.83;;;7.13;;
8046;SDS011;67150;42.516;23.358;2023-06-14T09:20:17;8.13;;;6.90;;
8046;SDS011;67150;42.516;23.358;2023-06-14T09:22:44;7.83;;;7.13;;
8046;SDS011;67150;42.516;23.358;2023-06-14T09:25:12;7.70;;;7.00;;
8046;SDS011;67150;42.516;23.358;2023-06-14T09:27:42;8.10;;;7.40;;
8046;SDS011;67150;42.516;23.358;2023-06-14T09:30:10;7.43;;;6.83;;
8046;SDS011;67150;42.516;23.358;2023-06-14T09:32:39;7.13;;;6.57;;
8046;SDS011;67150;42.516;23.358;2023-06-14T09:35:07;7.77;;;7.10;;
8046;SDS011;67150;42.516;23.358;2023-06-14T09:37:35;7.90;;;7.27;;
8046;SDS011;67150;42.516;23.358;2023-06-14T09:40:04;8.87;;;8.07;;
8046;SDS011;67150;42.516;23.358;2023-06-14T09:42:32;8.20;;;7.50;;
8046;SDS011;67150;42.516;23.358;2023-06-14T09:45:03;7.90;;;7.27;;
8046;SDS011;67150;42.516;23.358;2023-06-14T09:47:31;7.70;;;7.00;;
8046;SDS011;67150;42.516;23.358;2023-06-14T09:49:59;7.83;;;7.20;;
8046;SDS011;67150;42.516;23.358;2023-06-14T09:52:26;7.87;;;7.17;;
8046;SDS011;67150;42.516;23.358;2023-06-14T09:54:54;7.90;;;7.20;;
8046;SDS011;67150;42.516;23.358;2023-06-14T09:57:23;8.10;;;7.40;;
8046;SDS011;67150;42.516;23.358;2023-06-14T09:59:52;8.10;;;7.40;;
8046;SDS011;67150;42.516;23.358;2023-06-14T10:02:26;7.83;;;7.07;;
8046;SDS011;67150;42.516;23.358;2023-06-14T10:05:02;7.70;;;7.10;;
8046;SDS011;67150;42.516;23.358;2023-06-14T10:07:32;8.03;;;7.33;;
8046;SDS011;67150;42.516;23.358;2023-06-14T10:10:05;7.73;;;7.10;;
8046;SDS011;67150;42.516;23.358;2023-06-14T10:12:33;8.43;;;7.73;;
8046;SDS011;67150;42.516;23.358;2023-06-14T10:15:01;7.83;;;7.13;;
8046;SDS011;67150;42.516;23.358;2023-06-14T10:17:33;7.40;;;6.80;;
8046;SDS011;67150;42.516;23.358;2023-06-14T10:20:16;7.67;;;7.00;;
8046;SDS011;67150;42.516;23.358;2023-06-14T10:22:55;7.70;;;7.00;;
8046;SDS011;67150;42.516;23.358;2023-06-14T10:25:28;8.10;;;7.40;;
8046;SDS011;67150;42.516;23.358;2023-06-14T10:28:16;8.57;;;7.77;;
8046;SDS011;67150;42.516;23.358;2023-06-14T10:33:35;8.97;;;8.20;;
8046;SDS011;67150;42.516;23.358;2023-06-14T10:36:09;8.83;;;8.03;;
8046;SDS011;67150;42.516;23.358;2023-06-14T10:38:59;8.73;;;8.03;;
8046;SDS011;67150;42.516;23.358;2023-06-14T10:41:31;9.60;;;8.70;;
8046;SDS011;67150;42.516;23.358;2023-06-14T10:47:22;9.23;;;8.43;;
8046;SDS011;67150;42.516;23.358;2023-06-14T10:49:53;10.00;;;9.20;;
8046;SDS011;67150;42.516;23.358;2023-06-14T10:52:22;10.00;;;9.03;;
8046;SDS011;67150;42.516;23.358;2023-06-14T10:55:07;10.07;;;9.17;;
8046;SDS011;67150;42.516;23.358;2023-06-14T10:57:37;10.20;;;9.20;;
8046;SDS011;67150;42.516;23.358;2023-06-14T11:00:06;9.60;;;8.70;;
8046;SDS011;67150;42.516;23.358;2023-06-14T11:05:53;10.07;;;9.17;;
8046;SDS011;67150;42.516;23.358;2023-06-14T11:08:27;9.87;;;8.70;;
8046;SDS011;67150;42.516;23.358;2023-06-14T11:11:07;9.97;;;8.37;;
8046;SDS011;67150;42.516;23.358;2023-06-14T11:13:36;9.83;;;8.93;;
8046;SDS011;67150;42.516;23.358;2023-06-14T11:16:09;9.50;;;8.70;;
8046;SDS011;67150;42.516;23.358;2023-06-14T11:18:38;9.80;;;9.00;;
8046;SDS011;67150;42.516;23.358;2023-06-14T11:21:07;9.20;;;8.40;;
8046;SDS011;67150;42.516;23.358;2023-06-14T11:23:35;9.47;;;8.57;;
8046;SDS011;67150;42.516;23.358;2023-06-14T11:26:02;9.10;;;8.40;;
8046;SDS011;67150;42.516;23.358;2023-06-14T11:28:37;9.03;;;8.27;;
8046;SDS011;67150;42.516;23.358;2023-06-14T11:31:05;9.57;;;8.67;;
8046;SDS011;67150;42.516;23.358;2023-06-14T11:33:33;9.40;;;8.50;;
8046;SDS011;67150;42.516;23.358;2023-06-14T11:36:01;9.27;;;8.47;;
8046;SDS011;67150;42.516;23.358;2023-06-14T11:38:34;8.80;;;8.10;;
8046;SDS011;67150;42.516;23.358;2023-06-14T11:41:02;8.73;;;8.03;;
8046;SDS011;67150;42.516;23.358;2023-06-14T11:43:30;8.23;;;7.53;;
8046;SDS011;67150;42.516;23.358;2023-06-14T11:46:00;8.97;;;8.20;;
8046;SDS011;67150;42.516;23.358;2023-06-14T11:48:35;9.03;;;8.13;;
8046;SDS011;67150;42.516;23.358;2023-06-14T11:51:04;8.33;;;7.73;;
8046;SDS011;67150;42.516;23.358;2023-06-14T11:53:33;8.50;;;7.80;;
8046;SDS011;67150;42.516;23.358;2023-06-14T11:56:00;8.70;;;7.90;;
8046;SDS011;67150;42.516;23.358;2023-06-14T11:58:29;8.50;;;7.80;;
8046;SDS011;67150;42.516;23.358;2023-06-14T12:00:56;8.20;;;7.50;;
8046;SDS011;67150;42.516;23.358;2023-06-14T12:03:24;8.83;;;8.03;;
8046;SDS011;67150;42.516;23.358;2023-06-14T12:06:02;8.73;;;7.93;;
8046;SDS011;67150;42.516;23.358;2023-06-14T12:08:35;8.53;;;7.83;;
8046;SDS011;67150;42.516;23.358;2023-06-14T12:11:05;8.43;;;7.73;;
8046;SDS011;67150;42.516;23.358;2023-06-14T12:13:37;7.80;;;7.20;;
8046;SDS011;67150;42.516;23.358;2023-06-14T12:16:06;8.70;;;7.90;;
8046;SDS011;67150;42.516;23.358;2023-06-14T12:18:34;8.37;;;7.63;;
8046;SDS011;67150;42.516;23.358;2023-06-14T12:21:03;8.37;;;7.67;;
8046;SDS011;67150;42.516;23.358;2023-06-14T12:23:46;8.00;;;7.40;;
8046;SDS011;67150;42.516;23.358;2023-06-14T12:26:15;7.90;;;7.20;;
8046;SDS011;67150;42.516;23.358;2023-06-14T12:28:44;8.57;;;7.77;;
8046;SDS011;67150;42.516;23.358;2023-06-14T12:31:12;8.10;;;7.40;;
8046;SDS011;67150;42.516;23.358;2023-06-14T12:33:41;8.07;;;7.37;;
8046;SDS011;67150;42.516;23.358;2023-06-14T12:36:11;8.57;;;7.77;;
8046;SDS011;67150;42.516;23.358;2023-06-14T12:38:38;8.83;;;8.03;;
8046;SDS011;67150;42.516;23.358;2023-06-14T12:41:07;8.43;;;7.73;;
8046;SDS011;67150;42.516;23.358;2023-06-14T12:43:35;8.17;;;7.47;;
8046;SDS011;67150;42.516;23.358;2023-06-14T12:46:02;7.47;;;6.87;;
8046;SDS011;67150;42.516;23.358;2023-06-14T12:48:30;8.20;;;7.50;;
8046;SDS011;67150;42.516;23.358;2023-06-14T12:50:57;8.53;;;7.73;;
8046;SDS011;67150;42.516;23.358;2023-06-14T12:53:25;7.63;;;7.03;;
8046;SDS011;67150;42.516;23.358;2023-06-14T12:55:52;8.40;;;7.70;;
8046;SDS011;67150;42.516;23.358;2023-06-14T12:58:21;8.73;;;8.00;;
8046;SDS011;67150;42.516;23.358;2023-06-14T13:00:49;8.37;;;7.67;;
8046;SDS011;67150;42.516;23.358;2023-06-14T13:03:16;8.50;;;7.70;;
8046;SDS011;67150;42.516;23.358;2023-06-14T13:05:44;7.77;;;7.17;;
8046;SDS011;67150;42.516;23.358;2023-06-14T13:08:11;8.07;;;7.43;;
8046;SDS011;67150;42.516;23.358;2023-06-14T13:10:38;7.63;;;6.93;;
8046;SDS011;67150;42.516;23.358;2023-06-14T13:13:06;7.93;;;7.33;;
8046;SDS011;67150;42.516;23.358;2023-06-14T13:15:35;8.67;;;7.97;;
8046;SDS011;67150;42.516;23.358;2023-06-14T13:18:03;8.10;;;7.40;;
8046;SDS011;67150;42.516;23.358;2023-06-14T13:20:31;8.63;;;7.80;;
8046;SDS011;67150;42.516;23.358;2023-06-14T13:22:58;8.80;;;8.00;;
8046;SDS011;67150;42.516;23.358;2023-06-14T13:25:27;8.33;;;7.63;;
8046;SDS011;67150;42.516;23.358;2023-06-14T13:27:55;8.30;;;7.60;;
8046;SDS011;67150;42.516;23.358;2023-06-14T13:30:24;8.67;;;7.80;;
8046;SDS011;67150;42.516;23.358;2023-06-14T13:33:01;8.00;;;7.37;;
8046;SDS011;67150;42.516;23.358;2023-06-14T13:35:35;7.60;;;6.90;;
8046;SDS011;67150;42.516;23.358;2023-06-14T13:44:49;7.67;;;6.97;;
8046;SDS011;67150;42.516;23.358;2023-06-14T13:47:18;7.13;;;6.50;;
8046;SDS011;67150;42.516;23.358;2023-06-14T13:49:47;7.57;;;6.87;;
8046;SDS011;67150;42.516;23.358;2023-06-14T13:52:14;7.13;;;6.53;;
8046;SDS011;67150;42.516;23.358;2023-06-14T13:54:41;7.97;;;7.27;;
8046;SDS011;67150;42.516;23.358;2023-06-14T13:57:08;7.23;;;6.53;;
8046;SDS011;67150;42.516;23.358;2023-06-14T13:59:38;7.43;;;6.73;;
8046;SDS011;67150;42.516;23.358;2023-06-14T14:02:05;7.47;;;6.87;;
8046;SDS011;67150;42.516;23.358;2023-06-14T14:04:34;7.43;;;6.57;;
8046;SDS011;67150;42.516;23.358;2023-06-14T14:07:03;7.63;;;6.93;;
8046;SDS011;67150;42.516;23.358;2023-06-14T14:09:31;7.20;;;6.60;;
8046;SDS011;67150;42.516;23.358;2023-06-14T14:12:00;7.13;;;6.43;;
8046;SDS011;67150;42.516;23.358;2023-06-14T14:14:28;7.57;;;6.57;;
8046;SDS011;67150;42.516;23.358;2023-06-14T14:16:55;6.93;;;6.23;;
8046;SDS011;67150;42.516;23.358;2023-06-14T14:19:22;6.80;;;6.20;;
8046;SDS011;67150;42.516;23.358;2023-06-14T14:21:50;6.87;;;6.27;;
8046;SDS011;67150;42.516;23.358;2023-06-14T14:24:20;6.63;;;6.03;;
8046;SDS011;67150;42.516;23.358;2023-06-14T14:26:47;6.73;;;6.13;;
8046;SDS011;67150;42.516;23.358;2023-06-14T14:29:16;6.33;;;5.83;;
8046;SDS011;67150;42.516;23.358;2023-06-14T14:31:43;6.53;;;5.93;;
8046;SDS011;67150;42.516;23.358;2023-06-14T14:34:10;6.60;;;6.00;;
8046;SDS011;67150;42.516;23.358;2023-06-14T14:36:38;6.83;;;6.17;;
8046;SDS011;67150;42.516;23.358;2023-06-14T14:39:07;6.70;;;6.10;;
8046;SDS011;67150;42.516;23.358;2023-06-14T14:41:36;7.83;;;6.50;;
8046;SDS011;67150;42.516;23.358;2023-06-14T14:44:05;6.10;;;5.50;;
8046;SDS011;67150;42.516;23.358;2023-06-14T14:46:33;6.50;;;5.90;;
8046;SDS011;67150;42.516;23.358;2023-06-14T14:49:00;5.97;;;5.47;;
8046;SDS011;67150;42.516;23.358;2023-06-14T14:51:28;6.30;;;5.80;;
8046;SDS011;67150;42.516;23.358;2023-06-14T14:53:55;5.93;;;5.40;;
8046;SDS011;67150;42.516;23.358;2023-06-14T14:56:23;6.40;;;5.90;;
8046;SDS011;67150;42.516;23.358;2023-06-14T14:58:52;6.07;;;5.57;;
8046;SDS011;67150;42.516;23.358;2023-06-14T15:01:20;6.50;;;5.90;;
8046;SDS011;67150;42.516;23.358;2023-06-14T15:03:47;6.47;;;5.80;;
8046;SDS011;67150;42.516;23.358;2023-06-14T15:06:15;6.13;;;5.63;;
8046;SDS011;67150;42.516;23.358;2023-06-14T15:08:43;6.00;;;5.50;;
8046;SDS011;67150;42.516;23.358;2023-06-14T15:11:10;6.00;;;5.50;;
8046;SDS011;67150;42.516;23.358;2023-06-14T15:13:38;6.23;;;5.73;;